Time;durP1;ratioP1;P1;durP2;ratioP2;P2;SDS_P1;SDS_P2;PMS_P1;PMS_P2;Temp;Humidity;BMP_temperature;BMP_pressure;BME280_temperature;BME280_humidity;BME280_pressure;Samples;Min_cycle;Max_cycle;Signal;HPM_P1;HPM_P2
2024/01/07 00:01:24;;;;;;;7.82;6.22;;;5.40;99.90;;;;;;5057563;28;20115;-67
2024/01/07 00:03:51;;;;;;;8.07;6.15;;;5.40;99.90;;;;;;5057316;28;20113;-67
2024/01/07 00:06:17;;;;;;;9.43;6.38;;;5.40;99.90;;;;;;5056478;28;20371;-67
2024/01/07 00:08:43;;;;;;;9.43;6.57;;;5.30;99.90;;;;;;5039634;28;20120;-68
2024/01/07 00:11:09;;;;;;;9.85;6.78;;;5.40;99.90;;;;;;5056440;28;20120;-68
2024/01/07 00:13:35;;;;;;;8.25;6.15;;;5.40;99.90;;;;;;5057051;28;20041;-67
2024/01/07 00:16:01;;;;;;;10.65;6.90;;;5.40;99.90;;;;;;5057120;28;20028;-67
2024/01/07 00:18:27;;;;;;;11.90;7.03;;;5.40;99.90;;;;;;5056340;28;20062;-68
2024/01/07 00:20:53;;;;;;;7.90;6.28;;;5.40;99.90;;;;;;5056365;28;20170;-68
2024/01/07 00:23:20;;;;;;;10.95;6.97;;;5.50;99.80;;;;;;5056505;28;20142;-69
2024/01/07 00:25:47;;;;;;;10.65;7.30;;;5.50;99.40;;;;;;5056247;28;20035;-69
2024/01/07 00:28:13;;;;;;;11.27;7.32;;;5.50;97.50;;;;;;5056290;28;20068;-72
2024/01/07 00:30:38;;;;;;;10.15;7.22;;;5.60;90.40;;;;;;5056773;28;20409;-69
2024/01/07 00:33:04;;;;;;;11.30;8.48;;;5.50;89.50;;;;;;5056877;28;20033;-69
2024/01/07 00:35:30;;;;;;;10.68;7.75;;;5.50;91.30;;;;;;5056212;28;20037;-68
2024/01/07 00:37:56;;;;;;;12.02;8.02;;;5.20;92.80;;;;;;5056038;28;20404;-68
2024/01/07 00:40:23;;;;;;;11.23;7.72;;;5.20;97.60;;;;;;5056862;28;20071;-69
2024/01/07 00:42:52;;;;;;;10.85;7.68;;;5.10;97.20;;;;;;5039598;28;20036;-69
2024/01/07 00:45:18;;;;;;;12.63;8.60;;;5.20;97.80;;;;;;5056713;28;20296;-69
2024/01/07 00:47:44;;;;;;;11.65;8.23;;;5.30;92.60;;;;;;5055964;28;20094;-69
2024/01/07 00:50:10;;;;;;;11.55;8.20;;;5.20;93.30;;;;;;5039056;28;20281;-69
2024/01/07 00:52:37;;;;;;;11.73;8.32;;;5.10;94.30;;;;;;5056024;28;20112;-69
2024/01/07 00:55:06;;;;;;;11.32;8.10;;;5.20;94.10;;;;;;5023527;28;20037;-67
2024/01/07 00:57:33;;;;;;;12.27;7.95;;;5.10;94.40;;;;;;5055896;28;20131;-69
2024/01/07 00:59:59;;;;;;;12.73;8.43;;;5.10;93.80;;;;;;5056684;28;20017;-67
2024/01/07 01:02:25;;;;;;;12.77;8.43;;;5.10;91.40;;;;;;5056573;28;20056;-68
2024/01/07 01:04:51;;;;;;;11.50;8.52;;;5.00;84.20;;;;;;5039381;28;20068;-67
2024/01/07 01:07:17;;;;;;;13.55;8.65;;;5.00;82.00;;;;;;5055718;28;20131;-67
2024/01/07 01:09:43;;;;;;;14.30;8.98;;;4.90;92.00;;;;;;5055898;28;20033;-67
2024/01/07 01:12:12;;;;;;;12.23;8.45;;;4.80;92.60;;;;;;5039038;28;20047;-67
2024/01/07 01:14:37;;;;;;;12.82;8.20;;;4.50;98.70;;;;;;5055828;28;20068;-67
2024/01/07 01:17:03;;;;;;;15.93;8.55;;;4.50;98.50;;;;;;5039143;28;20067;-67
2024/01/07 01:19:29;;;;;;;13.10;8.88;;;4.50;98.00;;;;;;5056449;28;20033;-68
2024/01/07 01:21:55;;;;;;;15.15;8.85;;;4.50;96.10;;;;;;5056479;28;20358;-68
2024/01/07 01:24:21;;;;;;;11.88;8.55;;;4.50;97.60;;;;;;5056371;28;20040;-66
2024/01/07 01:26:47;;;;;;;14.48;8.82;;;4.40;99.90;;;;;;5039052;28;20032;-67
2024/01/07 01:29:13;;;;;;;13.65;8.48;;;4.50;97.40;;;;;;5038766;28;20045;-68
2024/01/07 01:31:38;;;;;;;14.77;8.32;;;4.50;96.60;;;;;;5056401;28;20036;-68
2024/01/07 01:34:04;;;;;;;12.45;8.10;;;4.40;97.50;;;;;;5055614;28;20041;-68
2024/01/07 01:36:33;;;;;;;13.93;9.07;;;4.30;96.30;;;;;;5056345;28;20028;-68
2024/01/07 01:38:59;;;;;;;15.50;9.27;;;4.40;99.50;;;;;;5055446;28;20026;-68
2024/01/07 01:41:24;;;;;;;12.60;8.55;;;4.40;96.80;;;;;;5055558;28;20117;-69
2024/01/07 01:43:50;;;;;;;14.38;8.95;;;4.50;95.70;;;;;;5039114;28;20300;-68
2024/01/07 01:46:16;;;;;;;13.35;9.20;;;4.60;93.80;;;;;;5055303;28;20057;-66
2024/01/07 01:48:42;;;;;;;14.52;8.85;;;4.60;94.10;;;;;;5055424;28;20039;-68
2024/01/07 01:51:09;;;;;;;16.77;9.98;;;4.60;94.70;;;;;;5056259;28;20296;-68
2024/01/07 01:53:36;;;;;;;14.20;9.25;;;4.50;95.60;;;;;;5055419;28;20021;-68
2024/01/07 01:56:02;;;;;;;13.73;9.40;;;4.40;99.00;;;;;;5038770;28;20033;-68
2024/01/07 01:58:29;;;;;;;16.52;10.68;;;4.50;97.50;;;;;;5038664;28;20427;-67
2024/01/07 02:00:56;;;;;;;15.30;10.43;;;4.40;96.40;;;;;;5038805;28;20029;-68
2024/01/07 02:03:22;;;;;;;15.52;10.15;;;4.50;98.10;;;;;;5058231;28;20025;-68
2024/01/07 02:05:49;;;;;;;14.85;9.18;;;4.50;95.30;;;;;;5025912;28;20040;-67
2024/01/07 02:08:15;;;;;;;15.30;10.20;;;4.40;96.50;;;;;;5059565;28;20305;-67
2024/01/07 02:10:44;;;;;;;16.83;10.57;;;4.50;97.10;;;;;;5059564;28;20036;-68
2024/01/07 02:13:11;;;;;;;15.80;10.13;;;4.60;95.80;;;;;;5042093;28;20063;-67
2024/01/07 02:15:37;;;;;;;15.48;10.18;;;4.60;91.50;;;;;;5059471;28;20028;-67
2024/01/07 02:18:03;;;;;;;16.52;10.70;;;4.60;92.40;;;;;;5059378;28;20039;-67
2024/01/07 02:20:29;;;;;;;16.13;10.88;;;4.40;96.10;;;;;;5058725;28;20335;-67
2024/01/07 02:22:58;;;;;;;16.73;10.80;;;4.40;96.50;;;;;;5058486;28;20086;-67
2024/01/07 02:25:24;;;;;;;17.42;11.18;;;4.40;98.10;;;;;;5058526;28;20025;-68
2024/01/07 02:27:50;;;;;;;17.20;11.10;;;4.40;97.30;;;;;;5059101;28;20040;-68
2024/01/07 02:30:17;;;;;;;15.88;10.65;;;4.60;99.40;;;;;;5058945;28;20488;-67
2024/01/07 02:32:43;;;;;;;18.98;11.80;;;4.50;99.90;;;;;;5059038;28;20033;-67
2024/01/07 02:35:09;;;;;;;21.02;12.20;;;4.60;99.90;;;;;;5041915;28;20040;-67
2024/01/07 02:37:35;;;;;;;18.48;11.85;;;4.60;94.60;;;;;;5058952;28;20037;-67
2024/01/07 02:40:00;;;;;;;18.83;11.95;;;4.50;93.20;;;;;;5058206;28;20250;-67
2024/01/07 02:42:26;;;;;;;19.92;12.57;;;4.40;93.20;;;;;;5058008;28;20060;-68
2024/01/07 02:44:52;;;;;;;19.33;12.05;;;4.40;95.90;;;;;;5058620;28;20444;-68
2024/01/07 02:47:18;;;;;;;19.27;12.13;;;4.40;97.00;;;;;;5058701;28;20041;-67
2024/01/07 02:49:44;;;;;;;19.05;12.73;;;4.40;95.30;;;;;;5058329;28;20029;-67
2024/01/07 02:52:09;;;;;;;19.90;12.27;;;4.40;96.10;;;;;;5057868;28;20036;-67
2024/01/07 02:54:35;;;;;;;19.55;12.65;;;4.40;91.70;;;;;;5024912;28;20156;-67
2024/01/07 02:57:01;;;;;;;19.00;11.80;;;4.30;91.70;;;;;;5041732;28;20166;-68
2024/01/07 02:59:27;;;;;;;21.45;13.00;;;4.30;93.10;;;;;;5041308;28;20388;-67
2024/01/07 03:01:52;;;;;;;19.10;12.05;;;4.30;95.70;;;;;;5057861;28;20405;-67
2024/01/07 03:04:18;;;;;;;19.90;12.32;;;4.30;94.30;;;;;;5041103;28;20048;-67
2024/01/07 03:06:44;;;;;;;19.85;11.43;;;4.30;93.10;;;;;;5058415;28;20501;-67
2024/01/07 03:09:10;;;;;;;18.10;11.50;;;4.20;92.90;;;;;;5057736;28;20049;-66
2024/01/07 03:11:42;;;;;;;18.05;11.15;;;4.20;95.80;;;;;;5057745;28;20040;-66
2024/01/07 03:14:08;;;;;;;20.23;12.50;;;4.10;98.50;;;;;;5057224;28;20044;-66
2024/01/07 03:16:33;;;;;;;18.50;11.70;;;4.30;94.20;;;;;;5058287;28;20297;-67
2024/01/07 03:18:59;;;;;;;19.73;11.68;;;4.20;98.50;;;;;;5058152;28;20282;-67
2024/01/07 03:21:25;;;;;;;20.13;11.88;;;4.20;96.40;;;;;;5057278;28;20033;-67
2024/01/07 03:23:51;;;;;;;19.67;12.43;;;4.30;96.50;;;;;;5058209;28;20106;-68
2024/01/07 03:26:18;;;;;;;21.48;12.60;;;4.20;95.70;;;;;;5058025;28;20099;-67
2024/01/07 03:28:44;;;;;;;19.17;11.27;;;4.20;96.30;;;;;;5057196;28;20017;-67
2024/01/07 03:31:12;;;;;;;18.80;12.05;;;4.20;96.20;;;;;;5057809;28;20045;-67
2024/01/07 03:33:39;;;;;;;20.35;12.27;;;4.20;95.30;;;;;;5057190;28;20025;-67
2024/01/07 03:36:09;;;;;;;19.55;11.23;;;4.20;95.40;;;;;;5057902;28;20028;-67
2024/01/07 03:38:36;;;;;;;17.85;11.48;;;4.20;94.70;;;;;;5057730;28;20422;-67
2024/01/07 03:41:02;;;;;;;20.45;11.73;;;4.10;98.40;;;;;;5057774;28;20270;-68
2024/01/07 03:43:28;;;;;;;21.38;12.57;;;4.20;99.00;;;;;;5056923;28;20040;-67
2024/01/07 03:45:54;;;;;;;19.73;12.48;;;4.20;99.00;;;;;;5057846;28;20305;-68
2024/01/07 03:48:19;;;;;;;23.10;13.38;;;4.30;98.80;;;;;;5040264;28;20037;-68
2024/01/07 03:50:45;;;;;;;20.35;12.40;;;4.30;99.90;;;;;;5057553;28;20269;-67
2024/01/07 03:53:12;;;;;;;21.58;12.90;;;4.30;99.90;;;;;;5057721;28;20041;-67
2024/01/07 03:55:38;;;;;;;19.30;12.80;;;4.30;99.90;;;;;;5057533;28;20100;-68
2024/01/07 03:58:04;;;;;;;21.45;12.68;;;4.30;99.70;;;;;;5056839;28;20186;-68
2024/01/07 04:00:30;;;;;;;17.02;11.52;;;4.30;99.40;;;;;;5056626;28;20048;-67
2024/01/07 04:02:56;;;;;;;19.92;12.65;;;4.30;99.90;;;;;;5057356;28;20029;-68
2024/01/07 04:05:21;;;;;;;19.88;11.80;;;4.20;98.40;;;;;;5057415;28;20347;-67
2024/01/07 04:07:47;;;;;;;19.17;11.30;;;4.30;99.90;;;;;;5056469;28;20041;-68
2024/01/07 04:10:16;;;;;;;20.08;12.07;;;4.20;99.90;;;;;;5023711;28;20400;-68
2024/01/07 04:12:42;;;;;;;20.95;12.98;;;4.20;99.90;;;;;;5056685;28;20396;-68
2024/01/07 04:15:09;;;;;;;18.10;12.00;;;4.20;99.90;;;;;;5056440;28;20025;-67
2024/01/07 04:17:34;;;;;;;18.25;12.52;;;4.20;99.90;;;;;;5039768;28;20047;-68
2024/01/07 04:20:00;;;;;;;18.45;12.23;;;4.30;99.90;;;;;;5057163;28;20029;-68
2024/01/07 04:22:26;;;;;;;19.55;11.80;;;4.20;99.90;;;;;;5056330;28;20037;-68
2024/01/07 04:24:52;;;;;;;18.05;11.77;;;4.20;99.60;;;;;;5039198;28;20037;-67
2024/01/07 04:27:18;;;;;;;16.92;12.20;;;4.10;99.90;;;;;;5056862;28;20056;-68
2024/01/07 04:29:44;;;;;;;17.30;11.68;;;4.10;99.90;;;;;;5056129;28;20059;-67
2024/01/07 04:32:09;;;;;;;22.23;12.23;;;4.10;99.90;;;;;;5056074;28;20044;-67
2024/01/07 04:34:35;;;;;;;18.08;11.85;;;4.10;99.90;;;;;;5039673;28;20104;-68
2024/01/07 04:37:01;;;;;;;19.17;12.52;;;4.10;99.90;;;;;;5057035;28;20029;-67
2024/01/07 04:39:27;;;;;;;18.83;12.32;;;4.10;99.90;;;;;;5056941;28;20040;-68
2024/01/07 04:41:52;;;;;;;18.52;12.57;;;4.20;99.90;;;;;;5056045;28;20110;-68
2024/01/07 04:44:18;;;;;;;17.10;11.52;;;4.20;99.90;;;;;;5056692;28;20103;-67
2024/01/07 04:46:44;;;;;;;19.23;12.05;;;4.00;99.90;;;;;;5055985;28;20025;-67
2024/01/07 04:49:10;;;;;;;19.77;12.20;;;4.00;99.90;;;;;;5039316;28;20029;-68
2024/01/07 04:51:38;;;;;;;17.27;11.07;;;4.10;99.90;;;;;;5039337;28;20274;-69
2024/01/07 04:54:05;;;;;;;15.73;10.77;;;4.00;99.90;;;;;;5055951;28;20052;-69
2024/01/07 04:56:32;;;;;;;19.77;12.32;;;3.90;99.90;;;;;;5055917;28;20028;-69
2024/01/07 04:58:58;;;;;;;22.60;13.00;;;4.00;99.90;;;;;;5039427;28;20043;-69
2024/01/07 05:01:23;;;;;;;22.30;12.80;;;4.00;99.90;;;;;;5055839;28;20112;-69
2024/01/07 05:03:49;;;;;;;22.33;13.68;;;4.10;99.90;;;;;;5039135;28;20047;-68
2024/01/07 05:06:15;;;;;;;24.30;13.65;;;4.00;99.90;;;;;;5055782;28;20043;-68
2024/01/07 05:08:42;;;;;;;24.42;13.85;;;3.90;99.90;;;;;;5055806;28;20029;-69
2024/01/07 05:11:08;;;;;;;24.95;14.00;;;3.80;99.90;;;;;;5056501;28;20033;-68
2024/01/07 05:13:34;;;;;;;24.15;12.90;;;3.90;99.90;;;;;;5055768;28;20278;-68
2024/01/07 05:16:00;;;;;;;23.67;13.85;;;4.00;99.90;;;;;;5056423;28;20040;-68
2024/01/07 05:18:26;;;;;;;24.73;13.32;;;3.90;99.90;;;;;;5055669;28;20300;-68
2024/01/07 05:20:52;;;;;;;25.42;14.00;;;3.90;99.90;;;;;;5022631;28;20033;-69
2024/01/07 05:23:18;;;;;;;25.35;14.45;;;3.90;99.90;;;;;;5056350;28;20039;-68
2024/01/07 05:25:44;;;;;;;26.92;14.68;;;3.80;99.90;;;;;;5056232;28;20036;-68
2024/01/07 05:28:13;;;;;;;26.23;14.55;;;3.80;99.90;;;;;;5055550;28;20041;-68
2024/01/07 05:30:39;;;;;;;26.73;14.38;;;3.80;99.90;;;;;;5055607;28;20064;-69
2024/01/07 05:33:05;;;;;;;25.67;14.25;;;3.80;99.90;;;;;;5055498;28;20025;-68
2024/01/07 05:35:31;;;;;;;28.75;15.02;;;3.70;99.90;;;;;;5056564;28;20408;-68
2024/01/07 05:37:58;;;;;;;27.25;13.95;;;3.70;99.90;;;;;;5059243;28;20029;-69
2024/01/07 05:40:23;;;;;;;26.90;14.75;;;3.80;99.90;;;;;;5059372;28;20132;-68
2024/01/07 05:42:49;;;;;;;25.85;14.60;;;3.80;99.90;;;;;;5060002;28;20120;-69
2024/01/07 05:45:15;;;;;;;27.35;14.82;;;3.80;99.90;;;;;;5059991;28;20021;-68
2024/01/07 05:47:41;;;;;;;26.45;13.93;;;3.70;99.90;;;;;;5059797;28;20418;-68
2024/01/07 05:50:07;;;;;;;25.95;14.45;;;3.80;99.90;;;;;;5059044;28;20036;-68
2024/01/07 05:52:34;;;;;;;25.67;13.93;;;3.70;99.90;;;;;;5058938;28;20076;-68
2024/01/07 05:55:00;;;;;;;26.40;13.73;;;3.60;99.90;;;;;;5042367;28;20025;-68
2024/01/07 05:57:26;;;;;;;25.95;14.55;;;3.70;99.90;;;;;;5059784;28;20400;-68
2024/01/07 05:59:52;;;;;;;28.58;14.93;;;3.70;99.90;;;;;;5059588;28;20082;-68
2024/01/07 06:02:18;;;;;;;29.63;15.10;;;3.80;99.90;;;;;;5058763;28;20037;-69
2024/01/07 06:04:44;;;;;;;27.90;15.25;;;3.70;99.90;;;;;;5059492;28;20048;-68
2024/01/07 06:07:10;;;;;;;30.00;15.93;;;3.70;99.90;;;;;;5058604;28;20361;-69
2024/01/07 06:09:36;;;;;;;33.22;16.20;;;3.80;99.90;;;;;;5058573;28;20118;-69
2024/01/07 06:12:01;;;;;;;31.45;16.25;;;3.80;99.90;;;;;;5059465;28;20020;-69
2024/01/07 06:14:27;;;;;;;29.25;15.90;;;3.80;99.90;;;;;;5058643;28;20043;-69
2024/01/07 06:16:53;;;;;;;34.17;16.48;;;3.70;99.90;;;;;;5041938;28;20319;-68
2024/01/07 06:19:21;;;;;;;35.83;16.63;;;3.80;99.90;;;;;;5059226;28;20324;-69
2024/01/07 06:21:47;;;;;;;32.85;17.17;;;3.80;99.90;;;;;;5059264;28;20307;-69
2024/01/07 06:24:13;;;;;;;33.33;17.38;;;3.90;99.90;;;;;;5058500;28;20033;-69
2024/01/07 06:26:40;;;;;;;35.75;18.10;;;3.80;99.90;;;;;;5058247;28;20036;-69
2024/01/07 06:29:06;;;;;;;31.70;17.15;;;3.80;99.90;;;;;;5058955;28;20095;-69
2024/01/07 06:31:31;;;;;;;37.97;17.92;;;3.80;99.90;;;;;;5041832;28;20033;-69
2024/01/07 06:33:57;;;;;;;33.00;18.38;;;3.70;99.90;;;;;;5025175;28;20024;-68
2024/01/07 06:36:24;;;;;;;34.65;17.45;;;3.70;99.90;;;;;;5058270;28;20467;-69
2024/01/07 06:38:50;;;;;;;35.60;18.35;;;3.70;99.90;;;;;;5058155;28;20068;-68
2024/01/07 06:41:16;;;;;;;35.60;18.15;;;3.80;99.90;;;;;;5058101;28;20312;-69
2024/01/07 06:43:42;;;;;;;35.28;17.90;;;3.80;99.90;;;;;;5041587;28;20102;-69
2024/01/07 06:46:07;;;;;;;32.85;17.58;;;3.70;99.90;;;;;;5058642;28;20068;-69
2024/01/07 06:48:33;;;;;;;35.25;17.98;;;3.60;99.90;;;;;;5057184;28;20033;-69
2024/01/07 06:50:59;;;;;;;34.80;18.30;;;3.70;99.90;;;;;;5058616;28;20372;-69
2024/01/07 06:53:25;;;;;;;36.72;17.65;;;3.80;99.90;;;;;;5058496;28;20071;-69
2024/01/07 06:55:51;;;;;;;36.58;18.90;;;3.70;99.90;;;;;;5058074;28;20056;-69
2024/01/07 06:58:16;;;;;;;34.50;17.70;;;3.80;99.90;;;;;;5057810;28;20029;-69
2024/01/07 07:00:42;;;;;;;34.50;17.23;;;3.90;99.90;;;;;;5057853;28;20111;-69
2024/01/07 07:03:08;;;;;;;36.50;19.25;;;3.90;99.90;;;;;;5057576;28;20025;-68
2024/01/07 07:05:34;;;;;;;35.28;18.75;;;4.00;99.90;;;;;;5057522;28;20396;-69
2024/01/07 07:08:01;;;;;;;33.97;17.63;;;4.10;99.90;;;;;;5057377;28;20106;-69
2024/01/07 07:10:27;;;;;;;33.92;17.45;;;3.90;99.90;;;;;;5058194;28;20037;-70
2024/01/07 07:12:53;;;;;;;32.67;17.40;;;3.90;99.90;;;;;;5058191;28;20342;-69
2024/01/07 07:15:18;;;;;;;36.67;19.05;;;3.80;99.90;;;;;;5057381;28;20033;-68
2024/01/07 07:17:44;;;;;;;30.75;16.77;;;3.80;99.90;;;;;;5057278;28;20115;-69
2024/01/07 07:20:11;;;;;;;38.10;19.13;;;3.80;99.90;;;;;;5058080;28;20108;-68
2024/01/07 07:22:37;;;;;;;41.67;19.10;;;3.80;99.90;;;;;;5040651;28;20040;-68
2024/01/07 07:25:03;;;;;;;36.40;18.58;;;3.70;99.90;;;;;;5058026;28;20305;-68
2024/01/07 07:27:29;;;;;;;35.88;18.17;;;3.70;99.90;;;;;;5024090;28;20413;-68
2024/01/07 07:29:55;;;;;;;35.88;17.35;;;3.70;99.90;;;;;;5040261;28;20152;-68
2024/01/07 07:32:21;;;;;;;32.40;17.65;;;3.70;99.90;;;;;;5057105;28;20039;-68
2024/01/07 07:34:47;;;;;;;31.13;18.20;;;3.80;99.90;;;;;;5040811;28;20112;-69
2024/01/07 07:37:13;;;;;;;31.92;17.45;;;3.80;99.90;;;;;;5040456;28;20063;-69
2024/01/07 07:39:39;;;;;;;36.53;18.38;;;3.80;99.90;;;;;;5057053;28;20037;-67
2024/01/07 07:42:05;;;;;;;33.53;17.92;;;3.80;99.90;;;;;;5056982;28;20044;-68
2024/01/07 07:44:32;;;;;;;34.00;18.15;;;3.70;99.90;;;;;;5056835;28;20316;-67
2024/01/07 07:46:57;;;;;;;32.10;16.88;;;3.70;99.90;;;;;;5056840;28;20090;-68
2024/01/07 07:49:23;;;;;;;30.42;15.75;;;3.80;99.90;;;;;;5057584;28;20061;-68
2024/01/07 07:51:49;;;;;;;31.15;16.30;;;3.70;99.90;;;;;;5040155;28;20029;-69
2024/01/07 07:54:15;;;;;;;31.10;16.92;;;3.80;99.90;;;;;;5023721;28;20065;-68
2024/01/07 07:56:41;;;;;;;32.17;17.23;;;3.80;99.90;;;;;;5057494;28;20351;-67
2024/01/07 07:59:08;;;;;;;32.63;17.63;;;3.80;99.90;;;;;;5022933;28;20036;-68
2024/01/07 08:01:34;;;;;;;31.88;17.40;;;3.80;99.90;;;;;;5040396;28;20116;-68
2024/01/07 08:04:02;;;;;;;28.92;15.90;;;3.80;99.90;;;;;;5057167;28;20068;-68
2024/01/07 08:06:28;;;;;;;32.22;16.45;;;3.80;99.90;;;;;;5056202;28;20357;-68
2024/01/07 08:08:54;;;;;;;31.58;16.77;;;3.80;99.90;;;;;;5056243;28;20040;-68
2024/01/07 08:11:20;;;;;;;32.15;17.60;;;3.80;99.90;;;;;;5056328;28;20025;-68
2024/01/07 08:13:46;;;;;;;33.45;16.95;;;3.80;99.90;;;;;;5039840;28;20112;-69
2024/01/07 08:16:13;;;;;;;39.33;17.80;;;3.80;99.90;;;;;;5023189;28;20033;-69
2024/01/07 08:18:40;;;;;;;33.22;17.58;;;3.80;99.90;;;;;;5039545;28;20036;-70
2024/01/07 08:21:06;;;;;;;30.52;17.27;;;3.90;99.90;;;;;;5056908;28;20295;-69
2024/01/07 08:23:32;;;;;;;31.00;16.63;;;3.90;99.90;;;;;;5057126;28;20120;-69
2024/01/07 08:25:58;;;;;;;28.48;15.52;;;3.90;99.90;;;;;;5055840;28;20127;-68
2024/01/07 08:28:24;;;;;;;27.95;16.25;;;3.90;99.90;;;;;;5055889;28;20109;-69
2024/01/07 08:30:51;;;;;;;28.95;16.05;;;3.80;99.90;;;;;;5056037;28;20053;-71
2024/01/07 08:33:18;;;;;;;28.42;15.82;;;3.80;99.90;;;;;;5056170;28;20364;-69
2024/01/07 08:35:44;;;;;;;30.05;17.02;;;3.80;99.90;;;;;;5055998;28;20134;-70
2024/01/07 08:38:10;;;;;;;29.75;16.55;;;3.80;99.90;;;;;;5056645;28;20151;-70
2024/01/07 08:40:36;;;;;;;30.50;16.45;;;3.80;99.90;;;;;;5056661;28;20430;-69
2024/01/07 08:43:02;;;;;;;25.50;16.15;;;3.90;99.90;;;;;;5039313;28;20029;-70
2024/01/07 08:45:28;;;;;;;28.38;16.65;;;3.80;99.90;;;;;;5055943;28;20052;-70
2024/01/07 08:47:54;;;;;;;27.55;15.93;;;3.80;99.90;;;;;;5055910;28;20029;-69
2024/01/07 08:50:20;;;;;;;29.80;16.45;;;3.80;99.90;;;;;;5039241;28;20036;-70
2024/01/07 08:52:46;;;;;;;28.20;15.65;;;3.80;99.90;;;;;;5056581;28;20021;-69
2024/01/07 08:55:12;;;;;;;27.35;16.23;;;3.80;99.90;;;;;;5039422;28;20349;-70
2024/01/07 08:57:38;;;;;;;30.08;16.02;;;3.80;99.90;;;;;;5055657;28;20041;-69
2024/01/07 09:00:07;;;;;;;25.25;15.57;;;3.70;99.90;;;;;;5055837;28;20499;-69
2024/01/07 09:02:33;;;;;;;25.70;15.55;;;3.80;99.90;;;;;;5039126;28;20035;-67
2024/01/07 09:04:59;;;;;;;25.45;15.38;;;3.80;99.90;;;;;;5055780;28;20025;-70
2024/01/07 09:07:25;;;;;;;22.63;14.88;;;3.80;99.90;;;;;;5006381;28;20484;-69
2024/01/07 09:09:51;;;;;;;25.10;14.57;;;3.70;99.90;;;;;;5056517;28;20033;-66
2024/01/07 09:12:17;;;;;;;23.65;15.25;;;3.60;99.90;;;;;;5058956;28;20047;-68
2024/01/07 09:14:43;;;;;;;24.55;14.45;;;3.50;99.90;;;;;;5060866;28;20038;-67
2024/01/07 09:17:08;;;;;;;22.95;13.55;;;3.40;99.90;;;;;;5059877;28;20040;-67
2024/01/07 09:19:34;;;;;;;22.35;13.93;;;3.50;99.90;;;;;;5059709;28;20029;-68
2024/01/07 09:22:00;;;;;;;19.80;13.25;;;3.40;99.90;;;;;;5059625;28;20040;-68
2024/01/07 09:24:26;;;;;;;24.55;13.48;;;3.40;99.90;;;;;;5060301;28;20053;-68
2024/01/07 09:26:52;;;;;;;22.20;13.57;;;3.40;99.90;;;;;;5059447;28;20052;-68
2024/01/07 09:29:18;;;;;;;23.25;14.05;;;3.50;99.90;;;;;;5042591;28;20092;-69
2024/01/07 09:31:43;;;;;;;21.77;13.75;;;3.50;99.90;;;;;;5060438;28;20044;-67
2024/01/07 09:34:09;;;;;;;22.42;13.98;;;3.40;99.90;;;;;;5059358;28;20033;-68
2024/01/07 09:36:36;;;;;;;22.35;14.38;;;3.50;99.90;;;;;;5059339;28;20029;-69
2024/01/07 09:39:04;;;;;;;20.75;12.68;;;3.60;99.90;;;;;;5059556;28;20033;-68
2024/01/07 09:41:30;;;;;;;22.70;13.65;;;3.60;99.90;;;;;;5059268;28;20044;-69
2024/01/07 09:43:58;;;;;;;20.52;13.15;;;3.60;99.90;;;;;;5059234;28;20116;-68
2024/01/07 09:46:25;;;;;;;21.25;13.35;;;3.70;99.90;;;;;;5059857;28;20400;-69
2024/01/07 09:48:51;;;;;;;20.42;13.35;;;3.60;99.90;;;;;;5059056;28;20087;-69
2024/01/07 09:51:21;;;;;;;21.63;12.52;;;3.70;99.90;;;;;;5059138;28;20029;-70
2024/01/07 09:53:50;;;;;;;21.17;12.75;;;3.70;99.10;;;;;;5059049;28;20025;-69
2024/01/07 09:56:22;;;;;;;20.77;13.25;;;3.70;99.90;;;;;;5059058;28;20036;-68
2024/01/07 09:58:49;;;;;;;22.85;13.13;;;3.60;98.60;;;;;;5059778;28;20484;-68
2024/01/07 10:01:18;;;;;;;20.20;13.00;;;3.60;99.90;;;;;;5058944;28;20044;-69
2024/01/07 10:03:44;;;;;;;20.30;12.90;;;3.70;99.10;;;;;;5058798;28;20348;-68
2024/01/07 10:06:11;;;;;;;21.13;13.52;;;3.60;99.90;;;;;;5058690;28;20036;-68
2024/01/07 10:08:38;;;;;;;19.92;12.52;;;3.60;99.90;;;;;;5059489;28;20442;-68
2024/01/07 10:11:04;;;;;;;19.42;13.13;;;3.70;98.30;;;;;;5059459;28;20035;-68
2024/01/07 10:13:31;;;;;;;17.42;12.38;;;3.70;99.10;;;;;;5059334;28;20079;-69
2024/01/07 10:15:57;;;;;;;20.45;12.75;;;3.70;99.60;;;;;;5058778;28;20049;-68
2024/01/07 10:18:22;;;;;;;18.85;12.90;;;3.70;97.50;;;;;;5058458;28;20100;-69
2024/01/07 10:20:48;;;;;;;18.73;12.18;;;3.80;99.90;;;;;;5058822;28;20123;-67
2024/01/07 10:23:21;;;;;;;19.02;12.15;;;3.80;96.10;;;;;;5058112;28;20056;-67
2024/01/07 10:25:47;;;;;;;19.40;12.63;;;3.70;95.20;;;;;;5059236;28;20036;-67
2024/01/07 10:28:14;;;;;;;17.88;11.45;;;3.70;97.20;;;;;;5058194;28;20044;-67
2024/01/07 10:30:40;;;;;;;17.65;11.27;;;3.70;95.50;;;;;;5041890;28;20290;-65
2024/01/07 10:33:08;;;;;;;14.95;10.40;;;3.60;97.10;;;;;;5059092;28;20101;-68
2024/01/07 10:35:35;;;;;;;18.20;12.07;;;3.50;95.90;;;;;;5058243;28;20024;-67
2024/01/07 10:38:02;;;;;;;16.27;10.45;;;3.40;98.80;;;;;;5058783;28;20028;-67
2024/01/07 10:40:30;;;;;;;17.08;11.05;;;3.40;99.90;;;;;;5058839;28;20166;-66
2024/01/07 10:42:56;;;;;;;17.45;11.23;;;3.30;99.90;;;;;;5041493;28;20178;-66
2024/01/07 10:45:22;;;;;;;18.60;11.07;;;3.30;99.90;;;;;;5058191;28;20278;-66
2024/01/07 10:47:51;;;;;;;18.08;11.95;;;3.30;99.90;;;;;;5058124;28;20031;-66
2024/01/07 10:50:17;;;;;;;16.17;10.15;;;3.30;99.90;;;;;;5058867;28;20319;-66
2024/01/07 10:52:50;;;;;;;16.33;11.07;;;3.40;99.20;;;;;;5058437;28;20330;-65
2024/01/07 10:55:18;;;;;;;17.80;10.60;;;3.40;99.90;;;;;;5058045;28;20125;-67
2024/01/07 10:57:49;;;;;;;15.98;10.70;;;3.40;99.90;;;;;;5058596;28;20048;-67
2024/01/07 11:00:19;;;;;;;15.15;10.55;;;3.40;99.90;;;;;;5058544;28;20274;-66
2024/01/07 11:03:09;;;;;;;17.08;10.75;;;3.50;98.50;;;;;;5025181;28;20033;-68
2024/01/07 11:05:48;;;;;;;16.92;10.50;;;3.50;94.00;;;;;;5058519;28;20099;-67
2024/01/07 11:08:22;;;;;;;17.20;10.73;;;3.60;95.30;;;;;;5057621;28;20037;-68
2024/01/07 11:10:57;;;;;;;17.33;11.35;;;3.40;95.30;;;;;;5058450;28;20021;-68
2024/01/07 11:13:37;;;;;;;16.42;10.77;;;3.40;99.80;;;;;;5058232;28;20108;-68
2024/01/07 11:16:11;;;;;;;16.83;11.75;;;3.50;95.80;;;;;;5057691;28;20335;-68
2024/01/07 11:18:45;;;;;;;17.10;11.55;;;3.40;91.60;;;;;;5058284;28;20036;-68
2024/01/07 11:21:24;;;;;;;19.60;11.40;;;3.50;94.10;;;;;;5041757;28;20036;-68
2024/01/07 11:23:52;;;;;;;17.33;11.55;;;3.40;94.00;;;;;;5057323;28;20029;-68
2024/01/07 11:26:20;;;;;;;17.15;11.07;;;3.30;94.50;;;;;;5057292;28;20060;-68
2024/01/07 11:28:53;;;;;;;16.10;10.27;;;3.30;96.40;;;;;;5040752;28;20025;-68
2024/01/07 11:31:48;;;;;;;13.95;9.45;;;3.30;95.10;;;;;;5057295;28;20094;-68
2024/01/07 11:34:49;;;;;;;13.15;9.70;;;3.20;96.10;;;;;;5057759;28;20033;-69
2024/01/07 11:37:15;;;;;;;17.52;11.10;;;3.20;97.10;;;;;;5057836;28;20048;-68
2024/01/07 11:39:51;;;;;;;17.02;10.77;;;3.40;94.00;;;;;;5057238;28;20028;-68
2024/01/07 11:42:18;;;;;;;15.73;10.75;;;3.40;92.80;;;;;;5058083;28;20099;-67
2024/01/07 11:44:52;;;;;;;15.90;10.82;;;3.50;92.40;;;;;;5040677;28;20029;-69
2024/01/07 11:47:19;;;;;;;15.32;11.20;;;3.50;91.20;;;;;;5057982;28;20029;-67
2024/01/07 11:49:46;;;;;;;16.40;10.50;;;3.60;85.80;;;;;;5040686;28;20132;-68
2024/01/07 11:52:12;;;;;;;13.80;9.82;;;3.50;86.20;;;;;;5057004;28;20107;-67
2024/01/07 11:54:41;;;;;;;12.43;9.50;;;3.50;88.90;;;;;;5056960;28;20021;-67
2024/01/07 11:57:07;;;;;;;17.73;10.57;;;3.30;93.50;;;;;;5056744;28;20052;-67
2024/01/07 11:59:34;;;;;;;16.23;10.25;;;3.20;92.10;;;;;;5056745;28;20040;-67
2024/01/07 12:02:01;;;;;;;15.75;10.13;;;3.20;93.20;;;;;;5057247;28;20025;-67
2024/01/07 12:04:28;;;;;;;12.73;9.20;;;3.40;92.40;;;;;;5056507;28;20037;-66
2024/01/07 12:06:53;;;;;;;13.57;9.57;;;3.40;84.00;;;;;;5057207;28;20044;-66
2024/01/07 12:09:19;;;;;;;13.98;9.40;;;3.10;91.00;;;;;;5039944;28;20025;-67
2024/01/07 12:11:46;;;;;;;14.80;9.48;;;3.20;91.50;;;;;;5056545;28;20033;-66
2024/01/07 12:14:12;;;;;;;14.82;9.93;;;3.20;89.40;;;;;;5056451;28;20217;-66
2024/01/07 12:16:38;;;;;;;15.15;9.57;;;3.40;91.60;;;;;;5057361;28;20316;-66
2024/01/07 12:19:04;;;;;;;13.98;9.00;;;3.60;82.90;;;;;;5057257;28;20090;-66
2024/01/07 12:21:30;;;;;;;13.07;9.27;;;3.50;76.70;;;;;;5057191;28;20322;-68
2024/01/07 12:23:56;;;;;;;12.27;9.10;;;3.60;79.70;;;;;;5039820;28;20051;-67
2024/01/07 12:26:33;;;;;;;11.85;8.63;;;3.60;78.50;;;;;;5039676;28;20056;-67
2024/01/07 12:29:03;;;;;;;12.63;8.90;;;3.40;90.00;;;;;;5039526;28;20319;-67
2024/01/07 12:31:33;;;;;;;13.88;9.10;;;3.20;86.80;;;;;;5056410;28;20028;-66
2024/01/07 12:33:59;;;;;;;14.02;8.40;;;3.20;90.70;;;;;;5039696;28;20472;-66
2024/01/07 12:36:26;;;;;;;12.93;7.88;;;3.40;83.20;;;;;;5056112;28;20044;-66